sensor_id;sensor_type;location;lat;lon;timestamp;temperature;humidity
6964;DHT22;3522;50.856;7.278;2023-01-13T00:01:20;10.30;99.90
6964;DHT22;3522;50.856;7.278;2023-01-13T00:03:47;10.30;99.90
6964;DHT22;3522;50.856;7.278;2023-01-13T00:06:14;10.30;99.90
6964;DHT22;3522;50.856;7.278;2023-01-13T00:08:41;10.40;99.90
6964;DHT22;3522;50.856;7.278;2023-01-13T00:11:08;10.40;99.90
6964;DHT22;3522;50.856;7.278;2023-01-13T00:13:36;10.40;99.90
6964;DHT22;3522;50.856;7.278;2023-01-13T00:16:03;10.40;99.90
6964;DHT22;3522;50.856;7.278;2023-01-13T00:18:30;10.40;99.90
6964;DHT22;3522;50.856;7.278;2023-01-13T00:20:57;10.40;99.90
6964;DHT22;3522;50.856;7.278;2023-01-13T00:23:25;10.30;99.90
6964;DHT22;3522;50.856;7.278;2023-01-13T00:25:53;10.30;99.90
6964;DHT22;3522;50.856;7.278;2023-01-13T00:28:20;10.30;99.90
6964;DHT22;3522;50.856;7.278;2023-01-13T00:30:48;10.30;99.90
6964;DHT22;3522;50.856;7.278;2023-01-13T00:33:14;10.30;99.90
6964;DHT22;3522;50.856;7.278;2023-01-13T00:35:41;10.30;99.90
6964;DHT22;3522;50.856;7.278;2023-01-13T00:38:07;10.30;99.90
6964;DHT22;3522;50.856;7.278;2023-01-13T00:40:34;10.20;99.90
6964;DHT22;3522;50.856;7.278;2023-01-13T00:43:00;10.20;99.90
6964;DHT22;3522;50.856;7.278;2023-01-13T00:45:45;10.20;99.90
6964;DHT22;3522;50.856;7.278;2023-01-13T00:48:13;10.20;99.90
6964;DHT22;3522;50.856;7.278;2023-01-13T00:50:39;10.20;99.90
6964;DHT22;3522;50.856;7.278;2023-01-13T00:53:06;10.10;99.90
6964;DHT22;3522;50.856;7.278;2023-01-13T00:55:32;10.10;99.90
6964;DHT22;3522;50.856;7.278;2023-01-13T00:57:59;10.10;99.90
6964;DHT22;3522;50.856;7.278;2023-01-13T01:00:27;10.00;99.90
6964;DHT22;3522;50.856;7.278;2023-01-13T01:02:54;10.00;99.90
6964;DHT22;3522;50.856;7.278;2023-01-13T01:05:22;9.90;99.90
6964;DHT22;3522;50.856;7.278;2023-01-13T01:07:49;9.90;99.90
6964;DHT22;3522;50.856;7.278;2023-01-13T01:10:15;9.80;99.90
6964;DHT22;3522;50.856;7.278;2023-01-13T01:12:42;9.80;99.90
6964;DHT22;3522;50.856;7.278;2023-01-13T01:15:09;9.60;99.90
6964;DHT22;3522;50.856;7.278;2023-01-13T01:17:36;9.30;99.90
6964;DHT22;3522;50.856;7.278;2023-01-13T01:20:03;9.00;99.90
6964;DHT22;3522;50.856;7.278;2023-01-13T01:22:31;8.80;99.90
6964;DHT22;3522;50.856;7.278;2023-01-13T01:24:58;8.60;99.90
6964;DHT22;3522;50.856;7.278;2023-01-13T21:13:19;7.80;99.90
6964;DHT22;3522;50.856;7.278;2023-01-13T21:16:03;7.80;99.90
6964;DHT22;3522;50.856;7.278;2023-01-13T21:18:30;7.70;99.90
6964;DHT22;3522;50.856;7.278;2023-01-13T21:21:14;7.80;99.90
6964;DHT22;3522;50.856;7.278;2023-01-13T21:23:41;7.80;99.90
6964;DHT22;3522;50.856;7.278;2023-01-13T21:26:08;7.80;99.90
6964;DHT22;3522;50.856;7.278;2023-01-13T21:28:36;7.80;99.90
6964;DHT22;3522;50.856;7.278;2023-01-13T21:31:03;7.80;99.90
6964;DHT22;3522;50.856;7.278;2023-01-13T21:33:30;7.80;99.90
6964;DHT22;3522;50.856;7.278;2023-01-13T21:35:57;7.80;99.90
6964;DHT22;3522;50.856;7.278;2023-01-13T21:38:24;7.80;99.90
6964;DHT22;3522;50.856;7.278;2023-01-13T21:40:54;7.80;99.90
6964;DHT22;3522;50.856;7.278;2023-01-13T21:43:21;7.80;99.90
6964;DHT22;3522;50.856;7.278;2023-01-13T21:46:09;7.90;99.90
6964;DHT22;3522;50.856;7.278;2023-01-13T21:48:54;7.80;99.90
6964;DHT22;3522;50.856;7.278;2023-01-13T21:51:20;7.80;99.90
6964;DHT22;3522;50.856;7.278;2023-01-13T21:53:47;7.80;99.90
6964;DHT22;3522;50.856;7.278;2023-01-13T21:56:13;7.80;99.90
6964;DHT22;3522;50.856;7.278;2023-01-13T21:58:40;7.80;99.90
6964;DHT22;3522;50.856;7.278;2023-01-13T22:01:06;7.80;99.90
6964;DHT22;3522;50.856;7.278;2023-01-13T22:03:35;7.80;99.90
6964;DHT22;3522;50.856;7.278;2023-01-13T22:06:21;7.80;99.90
6964;DHT22;3522;50.856;7.278;2023-01-13T22:08:48;7.80;99.90
6964;DHT22;3522;50.856;7.278;2023-01-13T22:11:15;7.80;99.90
6964;DHT22;3522;50.856;7.278;2023-01-13T22:13:41;7.80;99.90
6964;DHT22;3522;50.856;7.278;2023-01-13T22:16:25;7.80;99.90
6964;DHT22;3522;50.856;7.278;2023-01-13T22:18:53;7.80;99.90
6964;DHT22;3522;50.856;7.278;2023-01-13T22:21:20;7.80;99.90
6964;DHT22;3522;50.856;7.278;2023-01-13T22:23:46;7.80;99.90
6964;DHT22;3522;50.856;7.278;2023-01-13T22:26:13;7.80;99.90
6964;DHT22;3522;50.856;7.278;2023-01-13T22:28:40;7.80;99.90
6964;DHT22;3522;50.856;7.278;2023-01-13T22:31:07;7.80;99.90
6964;DHT22;3522;50.856;7.278;2023-01-13T22:33:35;7.80;99.90
6964;DHT22;3522;50.856;7.278;2023-01-13T22:36:03;7.80;99.90
6964;DHT22;3522;50.856;7.278;2023-01-13T22:38:30;7.80;99.90
6964;DHT22;3522;50.856;7.278;2023-01-13T22:40:58;7.80;99.90
6964;DHT22;3522;50.856;7.278;2023-01-13T22:43:25;7.70;99.90
6964;DHT22;3522;50.856;7.278;2023-01-13T22:45:55;7.80;99.90
6964;DHT22;3522;50.856;7.278;2023-01-13T22:48:21;7.70;99.90
6964;DHT22;3522;50.856;7.278;2023-01-13T22:50:48;7.80;99.90
6964;DHT22;3522;50.856;7.278;2023-01-13T22:53:16;7.80;99.90
6964;DHT22;3522;50.856;7.278;2023-01-13T22:55:43;7.80;99.90
6964;DHT22;3522;50.856;7.278;2023-01-13T22:58:09;7.80;99.90
6964;DHT22;3522;50.856;7.278;2023-01-13T23:00:36;7.80;99.90
6964;DHT22;3522;50.856;7.278;2023-01-13T23:03:03;7.80;99.90
6964;DHT22;3522;50.856;7.278;2023-01-13T23:05:30;7.80;99.90
6964;DHT22;3522;50.856;7.278;2023-01-13T23:07:57;7.80;99.90
6964;DHT22;3522;50.856;7.278;2023-01-13T23:10:25;7.80;99.90
6964;DHT22;3522;50.856;7.278;2023-01-13T23:12:51;7.80;99.90
6964;DHT22;3522;50.856;7.278;2023-01-13T23:15:18;7.80;99.90
6964;DHT22;3522;50.856;7.278;2023-01-13T23:17:47;7.80;99.90
6964;DHT22;3522;50.856;7.278;2023-01-13T23:20:13;7.80;99.90
6964;DHT22;3522;50.856;7.278;2023-01-13T23:22:40;7.80;99.90
6964;DHT22;3522;50.856;7.278;2023-01-13T23:25:07;7.80;99.90
6964;DHT22;3522;50.856;7.278;2023-01-13T23:27:35;7.80;99.90
6964;DHT22;3522;50.856;7.278;2023-01-13T23:30:02;7.80;99.90
6964;DHT22;3522;50.856;7.278;2023-01-13T23:32:29;7.80;99.90
6964;DHT22;3522;50.856;7.278;2023-01-13T23:34:56;7.80;99.90
6964;DHT22;3522;50.856;7.278;2023-01-13T23:37:22;7.70;99.90
6964;DHT22;3522;50.856;7.278;2023-01-13T23:39:49;7.80;99.90
6964;DHT22;3522;50.856;7.278;2023-01-13T23:42:16;7.80;99.90
6964;DHT22;3522;50.856;7.278;2023-01-13T23:44:44;7.70;99.90
6964;DHT22;3522;50.856;7.278;2023-01-13T23:47:10;7.80;99.90
6964;DHT22;3522;50.856;7.278;2023-01-13T23:49:37;7.70;99.90
6964;DHT22;3522;50.856;7.278;2023-01-13T23:52:04;7.70;99.90
6964;DHT22;3522;50.856;7.278;2023-01-13T23:54:31;7.70;99.90
6964;DHT22;3522;50.856;7.278;2023-01-13T23:56:58;7.70;99.90
6964;DHT22;3522;50.856;7.278;2023-01-13T23:59:24;7.60;99.90
